createdAt,value
2023-04-23T00:01:06.750Z,90.81
2023-04-23T00:03:34.506Z,90.26
2023-04-23T00:06:07.835Z,90.25
2023-04-23T00:08:34.623Z,90.20
2023-04-23T00:11:02.099Z,90.77
2023-04-23T00:13:29.153Z,90.31
2023-04-23T00:15:55.911Z,90.74
2023-04-23T00:18:22.350Z,89.98
2023-04-23T00:20:48.832Z,89.90
2023-04-23T00:23:15.349Z,90.24
2023-04-23T00:25:41.790Z,90.80
2023-04-23T00:28:08.214Z,90.42
2023-04-23T00:30:34.671Z,90.53
2023-04-23T00:33:01.249Z,91.03
2023-04-23T00:35:27.876Z,92.49
2023-04-23T00:37:54.321Z,93.84
2023-04-23T00:40:21.136Z,94.71
2023-04-23T00:42:49.157Z,94.62
2023-04-23T00:45:16.205Z,96.06
2023-04-23T00:47:43.452Z,96.70
2023-04-23T00:50:10.073Z,98.28
2023-04-23T00:52:39.151Z,99.36
2023-04-23T00:55:06.615Z,99.98
2023-04-23T00:57:33.494Z,98.88
2023-04-23T01:00:00.499Z,99.21
2023-04-23T01:02:28.480Z,99.62
2023-04-23T01:04:55.660Z,99.32
2023-04-23T01:07:22.856Z,100.00
2023-04-23T01:09:50.570Z,100.00
2023-04-23T01:12:17.584Z,100.00
2023-04-23T01:14:44.284Z,100.00
2023-04-23T01:17:12.218Z,100.00
2023-04-23T01:19:39.447Z,100.00
2023-04-23T01:22:11.122Z,100.00
2023-04-23T01:24:38.477Z,100.00
2023-04-23T01:27:06.129Z,100.00
2023-04-23T01:29:33.006Z,98.08
2023-04-23T01:32:00.004Z,97.59
2023-04-23T01:34:26.453Z,99.01
2023-04-23T01:36:54.378Z,99.26
2023-04-23T01:39:20.900Z,98.98
2023-04-23T01:41:47.569Z,100.00
2023-04-23T01:44:14.020Z,100.00
2023-04-23T01:46:40.660Z,100.00
2023-04-23T01:49:07.317Z,100.00
2023-04-23T01:51:33.805Z,100.00
2023-04-23T01:54:00.252Z,100.00
2023-04-23T01:56:28.109Z,100.00
2023-04-23T01:58:54.779Z,100.00
2023-04-23T02:01:21.861Z,100.00
2023-04-23T02:03:50.374Z,100.00
2023-04-23T02:06:17.408Z,100.00
2023-04-23T02:08:43.868Z,100.00
2023-04-23T02:11:10.305Z,100.00
2023-04-23T02:13:36.844Z,100.00
2023-04-23T02:16:03.372Z,100.00
2023-04-23T02:18:29.882Z,100.00
2023-04-23T02:20:57.400Z,100.00
2023-04-23T02:23:24.341Z,100.00
2023-04-23T02:25:52.189Z,100.00
2023-04-23T02:28:18.711Z,100.00
2023-04-23T02:30:47.793Z,100.00
2023-04-23T02:33:14.335Z,100.00
2023-04-23T02:35:40.910Z,100.00
2023-04-23T02:38:07.839Z,100.00
2023-04-23T02:40:34.364Z,100.00
2023-04-23T02:43:01.151Z,100.00
2023-04-23T02:45:27.583Z,100.00
2023-04-23T02:47:54.095Z,100.00
2023-04-23T02:50:20.698Z,100.00
2023-04-23T02:52:48.267Z,100.00
2023-04-23T02:55:14.882Z,100.00
2023-04-23T02:57:41.401Z,100.00
2023-04-23T03:00:09.132Z,100.00
2023-04-23T03:02:40.986Z,100.00
2023-04-23T03:05:08.260Z,100.00
2023-04-23T03:07:34.718Z,100.00
2023-04-23T03:10:01.151Z,100.00
2023-04-23T03:12:27.940Z,100.00
2023-04-23T03:14:54.794Z,100.00
2023-04-23T03:17:22.644Z,100.00
2023-04-23T03:19:49.407Z,100.00
2023-04-23T03:22:16.081Z,100.00
2023-04-23T03:24:42.756Z,100.00
2023-04-23T03:27:09.454Z,100.00
2023-04-23T03:29:36.197Z,100.00
2023-04-23T03:32:02.911Z,100.00
2023-04-23T03:34:30.120Z,100.00
2023-04-23T03:36:56.561Z,100.00
2023-04-23T03:39:23.191Z,100.00
2023-04-23T03:41:52.943Z,100.00
2023-04-23T03:44:23.523Z,100.00
2023-04-23T03:46:50.123Z,100.00
2023-04-23T03:49:17.136Z,100.00
2023-04-23T03:51:44.330Z,100.00
2023-04-23T03:54:11.257Z,100.00
2023-04-23T03:56:57.654Z,100.00
2023-04-23T03:59:28.002Z,100.00
2023-04-23T04:01:58.493Z,100.00
2023-04-23T04:04:26.084Z,100.00
2023-04-23T04:06:54.450Z,100.00
2023-04-23T04:09:25.342Z,100.00
2023-04-23T04:11:53.994Z,100.00
2023-04-23T04:14:21.168Z,100.00
2023-04-23T04:16:47.607Z,100.00
2023-04-23T04:19:14.311Z,100.00
2023-04-23T04:21:40.764Z,100.00
2023-04-23T04:24:07.665Z,100.00
2023-04-23T04:26:34.360Z,100.00
2023-04-23T04:29:01.604Z,100.00
2023-04-23T04:31:28.703Z,100.00
2023-04-23T04:33:55.578Z,100.00
2023-04-23T04:36:25.278Z,100.00
2023-04-23T04:39:00.810Z,100.00
2023-04-23T04:41:27.732Z,100.00
2023-04-23T04:43:58.539Z,100.00
2023-04-23T04:46:29.308Z,100.00
2023-04-23T04:48:55.907Z,100.00
2023-04-23T04:51:22.865Z,100.00
2023-04-23T04:53:49.321Z,100.00
2023-04-23T04:56:15.801Z,100.00
2023-04-23T04:58:44.727Z,100.00
2023-04-23T05:01:14.509Z,100.00
2023-04-23T05:03:41.281Z,100.00
2023-04-23T05:06:07.828Z,100.00
2023-04-23T05:08:34.274Z,100.00
2023-04-23T05:11:01.697Z,100.00
2023-04-23T05:13:28.145Z,100.00
2023-04-23T05:15:59.976Z,100.00
2023-04-23T05:18:26.501Z,100.00
2023-04-23T05:20:53.246Z,100.00
2023-04-23T05:23:19.697Z,100.00
2023-04-23T05:25:46.128Z,100.00
2023-04-23T05:28:12.556Z,100.00
2023-04-23T05:30:39.456Z,100.00
2023-04-23T05:33:05.997Z,100.00
2023-04-23T05:35:32.508Z,100.00
2023-04-23T05:37:59.818Z,100.00
2023-04-23T05:40:26.236Z,100.00
2023-04-23T05:42:52.677Z,100.00
2023-04-23T05:45:20.279Z,100.00
2023-04-23T05:47:46.801Z,100.00
2023-04-23T05:50:13.319Z,100.00
2023-04-23T05:52:39.891Z,100.00
2023-04-23T05:55:08.076Z,100.00
2023-04-23T05:57:37.412Z,100.00
2023-04-23T06:00:06.092Z,100.00
2023-04-23T06:02:39.852Z,100.00
2023-04-23T06:05:07.997Z,100.00
2023-04-23T06:07:34.841Z,100.00
2023-04-23T06:10:01.510Z,100.00
2023-04-23T06:12:28.013Z,100.00
2023-04-23T06:14:54.742Z,100.00
2023-04-23T06:17:21.173Z,100.00
2023-04-23T06:19:47.725Z,100.00
2023-04-23T06:22:14.141Z,100.00
2023-04-23T06:24:40.831Z,100.00
2023-04-23T06:27:07.540Z,100.00
2023-04-23T06:29:37.553Z,100.00
2023-04-23T06:32:05.339Z,100.00
2023-04-23T06:34:31.939Z,100.00
2023-04-23T06:36:58.454Z,100.00
2023-04-23T06:39:25.311Z,100.00
2023-04-23T06:41:51.772Z,100.00
2023-04-23T06:44:43.952Z,100.00
2023-04-23T06:47:10.696Z,100.00
2023-04-23T06:49:37.175Z,100.00
2023-04-23T06:52:03.633Z,100.00
2023-04-23T06:54:30.093Z,100.00
2023-04-23T06:56:57.373Z,100.00
2023-04-23T06:59:23.848Z,100.00
2023-04-23T07:01:53.876Z,100.00
2023-04-23T07:04:20.411Z,100.00
2023-04-23T07:06:46.880Z,100.00
2023-04-23T07:09:13.509Z,100.00
2023-04-23T07:11:40.401Z,100.00
2023-04-23T07:14:06.925Z,100.00
2023-04-23T07:16:33.998Z,100.00
2023-04-23T07:19:02.200Z,100.00
2023-04-23T07:21:29.060Z,100.00
2023-04-23T07:23:57.101Z,100.00
2023-04-23T07:26:25.085Z,100.00
2023-04-23T07:28:52.780Z,100.00
2023-04-23T07:31:20.630Z,100.00
2023-04-23T07:33:47.716Z,100.00
2023-04-23T07:36:14.421Z,100.00
2023-04-23T07:38:41.239Z,100.00
2023-04-23T07:41:07.724Z,100.00
2023-04-23T07:43:34.631Z,100.00
2023-04-23T07:46:01.194Z,100.00
2023-04-23T07:48:27.867Z,100.00
2023-04-23T07:50:54.375Z,100.00
2023-04-23T07:53:21.473Z,100.00
2023-04-23T07:55:48.001Z,100.00
2023-04-23T07:58:14.428Z,100.00
2023-04-23T08:00:40.915Z,100.00
2023-04-23T08:03:07.512Z,100.00
2023-04-23T08:05:34.384Z,100.00
2023-04-23T08:08:00.904Z,100.00
2023-04-23T08:10:27.397Z,100.00
2023-04-23T08:12:53.980Z,100.00
2023-04-23T08:15:20.456Z,100.00
2023-04-23T08:17:46.898Z,100.00
2023-04-23T08:20:13.425Z,100.00
2023-04-23T08:22:39.979Z,100.00
2023-04-23T08:25:06.812Z,100.00
2023-04-23T08:27:34.190Z,100.00
2023-04-23T08:30:00.766Z,100.00
2023-04-23T08:32:29.704Z,100.00
2023-04-23T08:34:56.284Z,100.00
2023-04-23T08:37:30.285Z,100.00
2023-04-23T08:39:57.588Z,100.00
2023-04-23T08:42:30.458Z,100.00
2023-04-23T08:44:57.575Z,100.00
2023-04-23T08:47:25.289Z,100.00
2023-04-23T08:49:54.577Z,100.00
2023-04-23T08:52:25.528Z,100.00
2023-04-23T08:55:00.008Z,100.00
2023-04-23T08:57:27.309Z,100.00
2023-04-23T08:59:55.283Z,100.00
2023-04-23T09:02:23.091Z,100.00
2023-04-23T09:04:51.801Z,100.00
2023-04-23T09:07:19.271Z,100.00
2023-04-23T09:09:45.818Z,100.00
2023-04-23T09:12:14.108Z,100.00
2023-04-23T09:14:41.213Z,100.00
2023-04-23T09:17:07.922Z,100.00
2023-04-23T09:19:36.163Z,100.00
2023-04-23T09:22:03.111Z,100.00
2023-04-23T09:24:30.648Z,100.00
2023-04-23T09:26:58.608Z,100.00
2023-04-23T09:29:26.998Z,100.00
2023-04-23T09:32:09.634Z,100.00
2023-04-23T09:34:41.337Z,100.00
2023-04-23T09:37:08.088Z,100.00
2023-04-23T09:39:35.996Z,100.00
2023-04-23T09:42:05.550Z,100.00
2023-04-23T09:44:33.661Z,100.00
2023-04-23T09:47:12.422Z,100.00
2023-04-23T09:49:47.889Z,100.00
2023-04-23T09:52:15.223Z,100.00
2023-04-23T09:54:43.098Z,100.00
2023-04-23T09:57:11.780Z,100.00
2023-04-23T09:59:48.500Z,100.00
2023-04-23T10:02:18.911Z,100.00
2023-04-23T10:04:52.331Z,100.00
2023-04-23T10:07:22.856Z,100.00
2023-04-23T10:09:49.384Z,100.00
2023-04-23T10:12:35.684Z,100.00
2023-04-23T10:15:08.040Z,100.00
2023-04-23T10:17:38.954Z,100.00
2023-04-23T10:20:07.241Z,100.00
2023-04-23T10:22:35.600Z,100.00
2023-04-23T10:25:09.320Z,100.00
2023-04-23T10:27:52.085Z,100.00
2023-04-23T10:30:21.518Z,100.00
2023-04-23T10:32:49.630Z,100.00
2023-04-23T10:35:16.475Z,100.00
2023-04-23T10:37:45.824Z,100.00
2023-04-23T10:40:15.036Z,100.00
2023-04-23T10:42:44.081Z,100.00
2023-04-23T10:45:24.047Z,100.00
2023-04-23T10:47:53.966Z,100.00
2023-04-23T10:50:31.078Z,100.00
2023-04-23T10:52:58.705Z,100.00
2023-04-23T10:55:27.924Z,100.00
2023-04-23T10:58:05.799Z,100.00
2023-04-23T11:00:41.699Z,100.00
2023-04-23T11:03:34.249Z,100.00
2023-04-23T11:06:07.304Z,100.00
2023-04-23T11:08:35.885Z,100.00
2023-04-23T11:11:07.366Z,100.00
2023-04-23T11:13:34.016Z,100.00
2023-04-23T11:16:23.227Z,100.00
2023-04-23T11:19:08.098Z,100.00
2023-04-23T11:21:59.954Z,100.00
2023-04-23T11:24:43.057Z,100.00
2023-04-23T11:27:12.063Z,100.00
2023-04-23T11:29:40.633Z,100.00
2023-04-23T11:32:12.914Z,100.00
2023-04-23T11:34:41.738Z,100.00
2023-04-23T11:37:11.080Z,100.00
2023-04-23T11:39:38.575Z,100.00
2023-04-23T11:42:05.113Z,100.00
2023-04-23T11:44:31.771Z,100.00
2023-04-23T11:47:04.437Z,100.00
2023-04-23T11:49:31.175Z,99.91
2023-04-23T11:52:01.384Z,100.00
2023-04-23T11:54:29.568Z,97.46
2023-04-23T11:56:58.147Z,100.00
2023-04-23T11:59:24.793Z,98.79
2023-04-23T12:01:55.357Z,100.00
2023-04-23T12:04:24.312Z,100.00
2023-04-23T12:06:52.375Z,96.23
2023-04-23T12:09:21.465Z,95.59
2023-04-23T12:11:50.762Z,93.36
2023-04-23T12:14:20.769Z,99.01
2023-04-23T12:16:52.031Z,97.75
2023-04-23T12:19:27.035Z,98.00
2023-04-23T12:21:55.161Z,96.74
2023-04-23T12:24:26.668Z,92.63
2023-04-23T12:26:54.713Z,91.92
2023-04-23T12:29:22.990Z,95.21
2023-04-23T12:31:52.126Z,97.44
2023-04-23T12:34:20.463Z,90.83
2023-04-23T12:36:49.773Z,96.51
2023-04-23T12:39:33.977Z,95.67
2023-04-23T12:42:08.260Z,94.98
2023-04-23T12:44:35.978Z,97.65
2023-04-23T12:47:15.306Z,91.36
2023-04-23T12:49:43.203Z,94.27
2023-04-23T12:52:12.130Z,92.43
2023-04-23T12:54:40.464Z,92.95
2023-04-23T12:57:11.017Z,91.52
2023-04-23T12:59:38.218Z,87.08
2023-04-23T13:02:06.830Z,87.85
2023-04-23T13:04:34.759Z,87.77
2023-04-23T13:07:01.749Z,91.03
2023-04-23T13:09:29.173Z,93.95
2023-04-23T13:11:55.957Z,87.94
2023-04-23T13:14:22.523Z,86.39
2023-04-23T13:16:49.415Z,87.79
2023-04-23T13:19:17.372Z,87.41
2023-04-23T13:21:44.706Z,87.51
2023-04-23T13:24:11.342Z,84.60
2023-04-23T13:26:37.992Z,91.19
2023-04-23T13:29:04.853Z,89.22
2023-04-23T13:31:31.657Z,88.39
2023-04-23T13:33:58.475Z,82.53
2023-04-23T13:36:25.247Z,87.32
2023-04-23T13:38:52.199Z,85.28
2023-04-23T13:41:18.686Z,84.30
2023-04-23T13:43:45.349Z,84.15
2023-04-23T13:46:12.155Z,85.60
2023-04-23T13:48:38.710Z,87.23
2023-04-23T13:51:16.926Z,88.66
2023-04-23T13:53:53.120Z,89.87
2023-04-23T13:56:19.820Z,87.51
2023-04-23T13:58:48.313Z,87.00
2023-04-23T14:01:16.081Z,84.44
2023-04-23T14:03:42.601Z,85.28
2023-04-23T14:06:09.131Z,89.95
2023-04-23T14:08:38.636Z,89.46
2023-04-23T14:11:06.717Z,85.81
2023-04-23T14:13:33.421Z,87.12
2023-04-23T14:16:02.131Z,90.00
2023-04-23T14:18:30.306Z,89.66
2023-04-23T14:20:56.971Z,89.97
2023-04-23T14:23:23.441Z,91.28
2023-04-23T14:25:58.981Z,86.20
2023-04-23T14:28:45.195Z,86.41
2023-04-23T14:31:11.790Z,86.99
2023-04-23T14:33:38.281Z,85.28
2023-04-23T14:36:04.923Z,89.94
2023-04-23T14:38:31.539Z,87.76
2023-04-23T14:40:58.057Z,90.68
2023-04-23T14:43:24.557Z,86.58
2023-04-23T14:45:51.948Z,87.71
2023-04-23T14:48:18.608Z,85.32
2023-04-23T14:50:45.812Z,85.96
2023-04-23T14:53:12.279Z,87.52
2023-04-23T14:55:42.658Z,88.55
2023-04-23T14:58:09.268Z,86.09
2023-04-23T15:00:36.000Z,84.47
2023-04-23T15:03:06.971Z,83.02
2023-04-23T15:05:33.607Z,83.70
2023-04-23T15:08:00.106Z,83.52
2023-04-23T15:10:26.753Z,84.41
2023-04-23T15:12:53.295Z,84.91
2023-04-23T15:15:36.922Z,85.97
2023-04-23T15:18:07.761Z,87.28
2023-04-23T15:20:34.366Z,87.95
2023-04-23T15:23:00.911Z,87.66
2023-04-23T15:25:27.833Z,89.79
2023-04-23T15:27:57.790Z,88.19
2023-04-23T15:30:26.117Z,88.72
2023-04-23T15:32:55.396Z,87.52
2023-04-23T15:35:26.148Z,85.58
2023-04-23T15:37:54.433Z,88.24
2023-04-23T15:40:20.960Z,87.53
2023-04-23T15:42:49.454Z,84.31
2023-04-23T15:45:16.981Z,87.62
2023-04-23T15:48:12.850Z,87.63
2023-04-23T15:50:39.414Z,85.32
2023-04-23T15:53:07.270Z,84.59
2023-04-23T15:55:34.987Z,84.31
2023-04-23T15:58:07.706Z,84.21
2023-04-23T16:00:34.634Z,82.90
2023-04-23T16:03:01.491Z,83.51
2023-04-23T16:05:29.950Z,82.71
2023-04-23T16:07:56.499Z,85.21
2023-04-23T16:10:23.168Z,86.75
2023-04-23T16:12:50.600Z,89.40
2023-04-23T16:15:17.151Z,89.34
2023-04-23T16:17:43.741Z,90.57
2023-04-23T16:20:11.648Z,88.39
2023-04-23T16:22:38.337Z,88.35
2023-04-23T16:25:06.273Z,89.61
2023-04-23T16:27:33.096Z,89.28
2023-04-23T16:29:59.679Z,91.25
2023-04-23T16:32:26.399Z,91.03
2023-04-23T16:34:52.880Z,88.30
2023-04-23T16:37:23.417Z,91.57
2023-04-23T16:39:49.926Z,88.33
2023-04-23T16:42:16.413Z,88.41
2023-04-23T16:44:43.158Z,93.73
2023-04-23T16:47:10.175Z,94.79
2023-04-23T16:49:36.698Z,95.63
2023-04-23T16:52:03.770Z,94.68
2023-04-23T16:54:31.759Z,97.33
2023-04-23T16:56:58.220Z,98.80
2023-04-23T16:59:24.716Z,97.43
2023-04-23T17:01:51.497Z,97.18
2023-04-23T17:04:18.745Z,97.81
2023-04-23T17:06:45.484Z,97.23
2023-04-23T17:09:12.092Z,97.70
2023-04-23T17:11:38.604Z,97.89
2023-04-23T17:14:05.199Z,99.26
2023-04-23T17:16:31.767Z,100.00
2023-04-23T17:18:58.284Z,100.00
2023-04-23T17:21:24.997Z,100.00
2023-04-23T17:23:51.533Z,100.00
2023-04-23T17:26:19.137Z,100.00
2023-04-23T17:28:46.068Z,100.00
2023-04-23T17:31:12.952Z,100.00
2023-04-23T17:33:39.710Z,100.00
2023-04-23T17:36:06.317Z,100.00
2023-04-23T17:38:32.818Z,100.00
2023-04-23T17:40:59.364Z,100.00
2023-04-23T17:43:31.580Z,100.00
2023-04-23T17:45:58.091Z,100.00
2023-04-23T17:48:25.274Z,100.00
2023-04-23T17:50:51.823Z,100.00
2023-04-23T17:53:20.589Z,100.00
2023-04-23T17:55:47.217Z,100.00
2023-04-23T17:58:13.819Z,100.00
2023-04-23T18:00:42.191Z,100.00
2023-04-23T18:03:09.855Z,100.00
2023-04-23T18:05:36.689Z,100.00
2023-04-23T18:08:03.356Z,100.00
2023-04-23T18:10:29.928Z,100.00
2023-04-23T18:12:56.560Z,100.00
2023-04-23T18:15:23.098Z,100.00
2023-04-23T18:17:50.312Z,100.00
2023-04-23T18:20:16.846Z,100.00
2023-04-23T18:22:44.320Z,100.00
2023-04-23T18:25:11.515Z,100.00
2023-04-23T18:27:38.353Z,100.00
2023-04-23T18:30:08.935Z,100.00
2023-04-23T18:32:40.109Z,100.00
2023-04-23T18:35:08.152Z,100.00
2023-04-23T18:37:44.003Z,100.00
2023-04-23T18:40:11.473Z,100.00
2023-04-23T18:42:38.263Z,100.00
2023-04-23T18:45:05.115Z,100.00
2023-04-23T18:47:36.749Z,100.00
2023-04-23T18:50:09.097Z,100.00
2023-04-23T18:52:36.240Z,97.24
2023-04-23T18:55:03.162Z,96.99
2023-04-23T18:57:29.613Z,98.35
2023-04-23T18:59:56.383Z,100.00
2023-04-23T19:02:34.416Z,100.00
2023-04-23T19:05:02.355Z,100.00
2023-04-23T19:07:28.831Z,100.00
2023-04-23T19:09:55.520Z,100.00
2023-04-23T19:12:22.171Z,100.00
2023-04-23T19:14:48.591Z,100.00
2023-04-23T19:17:18.026Z,100.00
2023-04-23T19:19:45.288Z,100.00
2023-04-23T19:22:11.756Z,100.00
2023-04-23T19:24:38.161Z,100.00
2023-04-23T19:27:06.665Z,100.00
2023-04-23T19:29:33.230Z,100.00
2023-04-23T19:31:59.689Z,100.00
2023-04-23T19:34:26.371Z,100.00
2023-04-23T19:36:52.784Z,100.00
2023-04-23T19:39:19.233Z,100.00
2023-04-23T19:41:45.906Z,100.00
2023-04-23T19:44:12.340Z,100.00
2023-04-23T19:46:38.827Z,100.00
2023-04-23T19:49:05.329Z,100.00
2023-04-23T19:51:35.254Z,100.00
2023-04-23T19:54:02.465Z,100.00
2023-04-23T19:56:28.951Z,100.00
2023-04-23T19:58:55.682Z,100.00
2023-04-23T20:01:22.501Z,100.00
2023-04-23T20:03:50.859Z,100.00
2023-04-23T20:06:17.494Z,100.00
2023-04-23T20:09:03.896Z,100.00
2023-04-23T20:11:30.806Z,100.00
2023-04-23T20:13:57.346Z,100.00
2023-04-23T20:16:24.321Z,100.00
2023-04-23T20:18:50.815Z,100.00
2023-04-23T20:21:17.325Z,100.00
2023-04-23T20:23:43.778Z,100.00
2023-04-23T20:26:10.259Z,100.00
2023-04-23T20:28:37.088Z,100.00
2023-04-23T20:31:03.689Z,100.00
2023-04-23T20:33:30.967Z,100.00
2023-04-23T20:35:58.761Z,100.00
2023-04-23T20:38:30.708Z,100.00
2023-04-23T20:41:02.273Z,100.00
2023-04-23T20:43:29.674Z,100.00
2023-04-23T20:45:56.627Z,100.00
2023-04-23T20:48:25.710Z,100.00
2023-04-23T20:50:52.518Z,100.00
2023-04-23T20:53:18.945Z,100.00
2023-04-23T20:55:45.386Z,100.00
2023-04-23T20:58:11.907Z,100.00
2023-04-23T21:00:38.450Z,100.00
2023-04-23T21:03:06.038Z,100.00
2023-04-23T21:05:32.640Z,100.00
2023-04-23T21:07:59.158Z,100.00
2023-04-23T21:10:25.709Z,100.00
2023-04-23T21:12:52.333Z,100.00
2023-04-23T21:15:18.989Z,100.00
2023-04-23T21:17:45.562Z,100.00
2023-04-23T21:20:12.030Z,100.00
2023-04-23T21:22:38.565Z,100.00
2023-04-23T21:25:05.515Z,100.00
2023-04-23T21:27:32.083Z,100.00
2023-04-23T21:30:03.265Z,100.00
2023-04-23T21:32:41.013Z,100.00
2023-04-23T21:35:08.099Z,100.00
2023-04-23T21:37:37.273Z,100.00
2023-04-23T21:40:04.810Z,100.00
2023-04-23T21:42:31.436Z,100.00
2023-04-23T21:44:57.932Z,100.00
2023-04-23T21:47:24.400Z,100.00
2023-04-23T21:49:51.105Z,100.00
2023-04-23T21:52:17.822Z,100.00
2023-04-23T21:54:44.293Z,100.00
2023-04-23T21:57:10.766Z,100.00
2023-04-23T21:59:37.373Z,100.00
2023-04-23T22:02:04.078Z,100.00
2023-04-23T22:04:31.223Z,100.00
2023-04-23T22:07:03.400Z,100.00
2023-04-23T22:09:30.114Z,100.00
2023-04-23T22:14:27.411Z,100.00
2023-04-23T22:16:55.055Z,100.00
2023-04-23T22:19:21.685Z,100.00
2023-04-23T22:21:48.172Z,100.00
2023-04-23T22:24:14.650Z,100.00
2023-04-23T22:26:41.191Z,100.00
2023-04-23T22:29:08.788Z,100.00
2023-04-23T22:31:35.450Z,100.00
2023-04-23T22:34:02.031Z,100.00
2023-04-23T22:36:28.877Z,100.00
2023-04-23T22:38:56.199Z,100.00
2023-04-23T22:41:22.745Z,100.00
2023-04-23T22:43:49.460Z,100.00
2023-04-23T22:46:16.415Z,100.00
2023-04-23T22:48:44.960Z,100.00
2023-04-23T22:51:11.930Z,100.00
2023-04-23T22:53:38.552Z,100.00
2023-04-23T22:56:05.190Z,100.00
2023-04-23T22:58:31.769Z,100.00
2023-04-23T23:00:58.326Z,100.00
2023-04-23T23:03:25.720Z,100.00
2023-04-23T23:05:52.350Z,100.00
2023-04-23T23:08:18.830Z,100.00
2023-04-23T23:10:45.476Z,100.00
2023-04-23T23:13:11.973Z,100.00
2023-04-23T23:15:38.543Z,100.00
2023-04-23T23:18:06.001Z,100.00
2023-04-23T23:20:32.616Z,100.00
2023-04-23T23:22:59.109Z,100.00
2023-04-23T23:25:25.667Z,100.00
2023-04-23T23:27:52.185Z,100.00
2023-04-23T23:30:18.894Z,100.00
2023-04-23T23:32:46.126Z,100.00
2023-04-23T23:35:12.675Z,100.00
2023-04-23T23:37:39.161Z,100.00
2023-04-23T23:40:07.114Z,100.00
2023-04-23T23:42:33.607Z,100.00
2023-04-23T23:45:00.212Z,100.00
2023-04-23T23:47:26.948Z,100.00
2023-04-23T23:49:53.520Z,100.00
2023-04-23T23:52:20.141Z,100.00
2023-04-23T23:54:47.020Z,100.00
2023-04-23T23:57:13.515Z,100.00
2023-04-23T23:59:40.048Z,100.00
